createdAt,value
2018-04-10T03:30:34.894Z,60.20
2018-04-10T03:33:03.289Z,56.22
2018-04-10T03:35:30.923Z,58.33
2018-04-10T03:37:58.570Z,61.70
2018-04-10T03:40:26.199Z,53.05
2018-04-10T03:42:53.829Z,51.20
2018-04-10T03:45:21.512Z,48.70
2018-04-10T03:47:51.623Z,52.85
2018-04-10T03:50:22.091Z,54.05
2018-04-10T03:52:50.650Z,49.15
2018-04-10T03:55:18.282Z,40.92
2018-04-10T03:57:45.931Z,49.33
2018-04-10T04:00:14.326Z,54.95
2018-04-10T04:02:41.958Z,55.85
2018-04-10T04:05:10.404Z,62.60
2018-04-10T04:07:38.278Z,49.80
2018-04-10T04:10:06.753Z,48.53
2018-04-10T04:12:34.406Z,45.78
2018-04-10T04:15:02.842Z,49.95
2018-04-10T04:17:32.879Z,52.97
2018-04-10T04:20:12.316Z,55.53
2018-04-10T04:22:39.967Z,49.28
2018-04-10T04:25:07.594Z,57.22
2018-04-10T04:27:36.014Z,53.83
2018-04-10T04:30:03.674Z,54.90
2018-04-10T04:32:31.344Z,54.08
2018-04-10T04:34:58.982Z,54.53
2018-04-10T04:37:26.634Z,47.08
2018-04-10T04:39:54.399Z,50.85
2018-04-10T04:42:22.039Z,46.50
2018-04-10T04:44:50.436Z,41.55
2018-04-10T04:47:18.146Z,44.60
2018-04-10T04:49:45.770Z,39.42
2018-04-10T04:52:13.419Z,34.03
2018-04-10T04:54:41.074Z,38.55
2018-04-10T04:57:08.722Z,34.45
2018-04-10T04:59:37.179Z,37.55
2018-04-10T05:02:04.818Z,36.05
2018-04-10T05:04:33.234Z,34.35
2018-04-10T05:07:01.654Z,32.95
2018-04-10T05:09:29.286Z,29.42
2018-04-10T05:11:56.939Z,27.83
2018-04-10T05:14:25.352Z,27.60
2018-04-10T05:16:53.006Z,39.72
2018-04-10T05:19:20.656Z,39.78
2018-04-10T05:21:48.306Z,45.85
2018-04-10T05:24:15.942Z,40.80
2018-04-10T05:26:43.600Z,47.42
2018-04-10T05:29:11.229Z,36.83
2018-04-10T05:31:38.902Z,35.83
2018-04-10T05:34:06.531Z,38.00
2018-04-10T05:36:34.162Z,32.35
2018-04-10T05:39:02.598Z,34.05
2018-04-10T05:41:30.226Z,32.35
2018-04-10T05:43:57.856Z,36.67
2018-04-10T05:46:26.278Z,33.65
2018-04-10T05:48:53.954Z,31.87
2018-04-10T05:51:21.577Z,40.20
2018-04-10T05:53:49.202Z,29.52
2018-04-10T05:56:17.654Z,33.53
2018-04-10T05:58:45.295Z,28.27
2018-04-10T06:01:12.926Z,29.58
2018-04-10T06:03:40.581Z,27.15
2018-04-10T06:06:08.210Z,31.30
2018-04-10T06:08:35.843Z,33.20
2018-04-10T06:11:03.501Z,41.60
2018-04-10T06:13:31.131Z,33.15
2018-04-10T06:15:58.822Z,29.92
2018-04-10T06:18:26.465Z,31.05
2018-04-10T06:20:54.090Z,34.00
2018-04-10T06:23:22.522Z,34.97
2018-04-10T06:25:50.150Z,33.45
2018-04-10T06:28:17.770Z,35.28
2018-04-10T06:30:45.438Z,39.47
2018-04-10T06:33:13.067Z,41.37
2018-04-10T06:35:40.698Z,43.38
2018-04-10T06:38:08.358Z,55.10
2018-04-10T06:40:36.038Z,35.38
2018-04-10T06:43:03.667Z,34.08
2018-04-10T06:45:31.303Z,30.95
2018-04-10T06:47:59.733Z,29.80
2018-04-10T06:50:28.137Z,25.17
2018-04-10T06:52:55.864Z,25.02
2018-04-10T06:55:23.488Z,29.90
2018-04-10T06:57:51.886Z,28.10
2018-04-10T07:00:19.543Z,25.12
2018-04-10T07:02:47.178Z,26.27
2018-04-10T07:05:14.849Z,25.65
2018-04-10T07:07:43.262Z,30.90
2018-04-10T07:10:10.905Z,34.95
2018-04-10T07:12:38.564Z,34.15
2018-04-10T07:15:06.197Z,27.33
2018-04-10T07:17:33.851Z,39.70
2018-04-10T07:20:01.509Z,40.70
2018-04-10T07:22:29.146Z,36.88
2018-04-10T07:24:57.182Z,29.92
2018-04-10T07:27:24.862Z,27.57
2018-04-10T07:29:52.514Z,25.83
2018-04-10T07:32:20.162Z,23.95
2018-04-10T07:34:47.832Z,22.00
2018-04-10T07:37:15.497Z,26.50
2018-04-10T07:39:43.195Z,26.85
2018-04-10T07:42:10.861Z,22.35
2018-04-10T07:44:38.503Z,21.27
2018-04-10T07:47:06.142Z,20.37
2018-04-10T07:49:33.823Z,15.40
2018-04-10T07:52:01.459Z,11.07
2018-04-10T07:54:29.094Z,14.27
2018-04-10T07:56:56.775Z,18.40
2018-04-10T07:59:24.418Z,17.10
2018-04-10T08:01:52.054Z,16.00
2018-04-10T08:04:20.483Z,27.98
2018-04-10T08:06:48.122Z,15.03
2018-04-10T08:09:15.754Z,26.50
2018-04-10T08:11:44.178Z,24.43
2018-04-10T08:14:11.806Z,19.67
2018-04-10T08:16:40.344Z,17.07
2018-04-10T08:19:07.972Z,19.17
2018-04-10T08:21:35.614Z,24.83
2018-04-10T08:24:03.298Z,15.13
2018-04-10T08:26:30.926Z,16.27
2018-04-10T08:28:59.322Z,17.57
2018-04-10T08:31:27.017Z,15.70
2018-04-10T08:33:54.658Z,15.50
2018-04-10T08:36:22.297Z,14.43
2018-04-10T08:38:49.959Z,9.45
2018-04-10T08:41:17.599Z,11.73
2018-04-10T08:43:46.056Z,9.95
2018-04-10T08:46:13.699Z,7.85
2018-04-10T08:48:41.330Z,8.93
2018-04-10T08:51:08.995Z,10.57
2018-04-10T08:53:36.679Z,11.57
2018-04-10T08:56:04.322Z,14.55
2018-04-10T08:58:31.952Z,9.87
2018-04-10T09:00:59.627Z,6.77
2018-04-10T09:03:27.254Z,7.73
2018-04-10T09:05:55.666Z,11.93
2018-04-10T09:08:23.338Z,9.13
2018-04-10T09:10:50.975Z,13.73
2018-04-10T09:13:18.614Z,11.57
2018-04-10T09:15:47.132Z,10.10
2018-04-10T09:18:14.771Z,11.00
2018-04-10T09:20:42.547Z,16.60
2018-04-10T09:23:10.185Z,7.37
2018-04-10T09:25:38.591Z,10.53
2018-04-10T09:28:06.278Z,10.82
2018-04-10T09:30:33.919Z,8.27
2018-04-10T09:33:01.555Z,5.47
2018-04-10T09:35:29.245Z,7.35
2018-04-10T09:37:56.887Z,8.98
2018-04-10T09:40:24.530Z,11.73
2018-04-10T09:42:52.196Z,5.87
2018-04-10T09:45:19.831Z,7.33
2018-04-10T09:47:47.518Z,10.23
2018-04-10T09:50:15.164Z,8.70
2018-04-10T09:52:42.814Z,6.13
2018-04-10T09:55:10.487Z,7.27
2018-04-10T09:57:38.882Z,8.80
2018-04-10T10:00:06.930Z,10.30
2018-04-10T10:02:35.365Z,8.30
2018-04-10T10:05:04.634Z,6.70
2018-04-10T10:07:32.274Z,6.13
2018-04-10T10:10:00.726Z,6.20
2018-04-10T10:12:28.350Z,7.93
2018-04-10T10:14:56.044Z,7.77
2018-04-10T10:17:23.730Z,12.40
2018-04-10T10:19:52.136Z,14.53
2018-04-10T10:22:19.774Z,10.40
2018-04-10T10:24:48.210Z,9.20
2018-04-10T10:27:15.855Z,11.55
2018-04-10T10:29:43.492Z,13.05
2018-04-10T10:32:11.155Z,10.60
2018-04-10T10:34:38.792Z,6.57
2018-04-10T10:37:07.194Z,9.50
2018-04-10T10:39:34.866Z,6.03
2018-04-10T10:42:02.499Z,9.88
2018-04-10T10:44:31.694Z,16.13
2018-04-10T10:46:59.356Z,8.68
2018-04-10T10:49:26.992Z,6.10
2018-04-10T10:51:55.434Z,8.52
2018-04-10T10:54:23.075Z,11.03
2018-04-10T10:56:50.715Z,7.70
2018-04-10T10:59:18.374Z,7.05
2018-04-10T11:01:46.774Z,8.40
2018-04-10T11:04:14.414Z,8.27
2018-04-10T11:06:42.090Z,7.60
2018-04-10T11:09:09.728Z,8.00
2018-04-10T11:11:38.126Z,8.40
2018-04-10T11:14:05.785Z,7.70
2018-04-10T11:16:33.421Z,9.23
2018-04-10T11:19:01.823Z,13.03
2018-04-10T11:21:29.480Z,12.10
2018-04-10T11:23:57.150Z,12.13
2018-04-10T11:26:24.786Z,23.00
2018-04-10T11:28:53.186Z,10.73
2018-04-10T11:31:20.874Z,10.23
2018-04-10T11:33:48.508Z,16.40
2018-04-10T11:36:16.134Z,8.73
2018-04-10T11:38:44.556Z,11.33
2018-04-10T11:41:12.187Z,13.20
2018-04-10T11:43:40.611Z,15.67
2018-04-10T11:46:08.282Z,12.30
2018-04-10T11:48:35.915Z,5.23
2018-04-10T11:51:03.556Z,11.10
2018-04-10T11:53:31.230Z,8.27
2018-04-10T11:55:58.864Z,6.30
2018-04-10T11:58:27.293Z,10.97
2018-04-10T12:00:54.955Z,10.27
2018-04-10T12:03:22.596Z,6.85
2018-04-10T12:05:50.282Z,5.00
2018-04-10T12:08:17.914Z,7.60
2018-04-10T12:10:45.546Z,11.50
2018-04-10T12:13:13.986Z,8.97
2018-04-10T12:15:41.610Z,9.47
2018-04-10T12:18:09.239Z,9.23
2018-04-10T12:20:37.694Z,16.27
2018-04-10T12:23:05.323Z,7.80
2018-04-10T12:25:32.962Z,7.80
2018-04-10T12:28:00.631Z,12.37
2018-04-10T12:30:28.267Z,4.17
2018-04-10T12:32:55.907Z,7.40
2018-04-10T12:35:24.338Z,12.65
2018-04-10T12:37:51.967Z,5.37
2018-04-10T12:40:19.603Z,6.20
2018-04-10T12:42:47.260Z,7.83
2018-04-10T12:45:15.674Z,3.62
2018-04-10T12:47:44.325Z,6.03
2018-04-10T12:50:11.957Z,10.07
2018-04-10T12:52:39.606Z,5.70
2018-04-10T12:55:07.269Z,9.30
2018-04-10T12:57:34.907Z,8.47
2018-04-10T13:00:02.563Z,5.90
2018-04-10T13:02:30.199Z,10.87
2018-04-10T13:04:58.631Z,6.00
2018-04-10T13:07:27.035Z,4.75
2018-04-10T13:09:54.706Z,5.60
2018-04-10T13:12:23.149Z,8.85
2018-04-10T13:14:50.782Z,4.90
2018-04-10T13:17:18.454Z,4.47
2018-04-10T13:19:46.083Z,5.33
2018-04-10T13:22:14.475Z,6.00
2018-04-10T13:24:42.158Z,15.27
2018-04-10T13:27:09.836Z,8.15
2018-04-10T13:29:37.467Z,8.40
2018-04-10T13:32:05.242Z,17.63
2018-04-10T13:34:32.918Z,8.00
2018-04-10T13:37:00.539Z,6.20
2018-04-10T13:39:28.211Z,8.13
2018-04-10T13:41:55.850Z,6.60
2018-04-10T13:44:23.492Z,6.65
2018-04-10T13:46:51.922Z,11.20
2018-04-10T13:49:19.559Z,4.67
2018-04-10T13:51:47.218Z,5.93
2018-04-10T13:54:14.860Z,9.30
2018-04-10T13:56:43.261Z,7.67
2018-04-10T13:59:10.938Z,3.00
2018-04-10T14:01:38.570Z,3.83
2018-04-10T14:04:06.211Z,2.10
2018-04-10T14:06:34.654Z,8.10
2018-04-10T14:09:02.315Z,11.07
2018-04-10T14:11:29.943Z,7.87
2018-04-10T14:13:57.599Z,5.60
2018-04-10T14:16:25.250Z,5.03
2018-04-10T14:18:52.882Z,5.60
2018-04-10T14:21:20.536Z,3.43
2018-04-10T14:23:48.172Z,4.43
2018-04-10T14:26:15.822Z,4.17
2018-04-10T14:28:43.502Z,7.73
2018-04-10T14:31:11.130Z,9.20
2018-04-10T14:33:38.795Z,6.97
2018-04-10T14:36:06.525Z,5.50
2018-04-10T14:38:35.828Z,2.80
2018-04-10T14:41:03.527Z,6.50
2018-04-10T14:43:31.201Z,6.83
2018-04-10T14:45:58.834Z,7.70
2018-04-10T14:48:26.464Z,5.17
2018-04-10T14:50:54.907Z,8.70
2018-04-10T14:53:22.539Z,10.27
2018-04-10T14:55:50.177Z,4.17
2018-04-10T14:58:17.870Z,7.77
2018-04-10T15:00:45.502Z,8.63
2018-04-10T15:03:13.135Z,8.70
2018-04-10T15:05:41.554Z,7.83
2018-04-10T15:08:09.186Z,6.63
2018-04-10T15:10:37.583Z,5.73
2018-04-10T15:13:05.278Z,4.30
2018-04-10T15:15:33.707Z,8.13
2018-04-10T15:18:01.347Z,8.13
2018-04-10T15:20:29.778Z,3.20
2018-04-10T15:22:57.496Z,5.60
2018-04-10T15:25:26.383Z,8.70
2018-04-10T15:27:54.811Z,6.20
2018-04-10T15:30:22.438Z,2.67
2018-04-10T15:32:50.109Z,8.67
2018-04-10T15:35:17.742Z,5.27
2018-04-10T15:37:46.143Z,5.00
2018-04-10T15:40:13.818Z,7.37
2018-04-10T15:42:41.450Z,7.87
2018-04-10T15:45:09.853Z,7.70
2018-04-10T15:47:37.539Z,4.77
2018-04-10T15:50:05.167Z,6.90
2018-04-10T15:52:32.803Z,5.53
2018-04-10T15:55:01.244Z,5.80
2018-04-10T15:57:28.874Z,6.37
2018-04-10T15:59:56.531Z,4.80
2018-04-10T16:02:24.186Z,7.03
2018-04-10T16:04:51.835Z,2.40
2018-04-10T16:07:19.472Z,7.17
2018-04-10T16:09:47.175Z,11.33
2018-04-10T16:12:14.814Z,3.30
2018-04-10T16:14:43.001Z,5.93
2018-04-10T16:17:10.794Z,4.50
2018-04-10T16:19:38.474Z,3.90
2018-04-10T16:22:06.108Z,2.03
2018-04-10T16:24:33.777Z,4.07
2018-04-10T16:27:01.413Z,3.30
2018-04-10T16:29:29.043Z,3.53
2018-04-10T16:31:58.026Z,4.53
2018-04-10T16:34:25.711Z,8.53
2018-04-10T16:36:53.506Z,2.63
2018-04-10T16:39:21.172Z,5.37
2018-04-10T16:41:49.068Z,8.20
2018-04-10T16:44:17.517Z,2.60
2018-04-10T16:46:46.221Z,6.07
2018-04-10T16:49:13.937Z,8.77
2018-04-10T16:51:41.597Z,5.57
2018-04-10T16:54:09.434Z,7.03
2018-04-10T16:56:37.837Z,6.37
2018-04-10T16:59:05.495Z,3.77
2018-04-10T17:01:33.126Z,9.55
2018-04-10T17:04:01.521Z,4.13
2018-04-10T17:06:29.204Z,5.35
2018-04-10T17:08:56.843Z,9.82
2018-04-10T17:11:24.491Z,5.15
2018-04-10T17:13:52.928Z,3.50
2018-04-10T17:16:20.571Z,12.77
2018-04-10T17:18:48.216Z,9.73
2018-04-10T17:21:15.899Z,9.75
2018-04-10T17:23:43.542Z,11.00
2018-04-10T17:26:11.182Z,11.95
2018-04-10T17:28:39.334Z,10.05
2018-04-10T17:31:07.326Z,12.93
2018-04-10T17:33:35.320Z,7.35
2018-04-10T17:36:02.974Z,5.78
2018-04-10T17:38:30.934Z,7.72
2018-04-10T17:40:59.518Z,5.05
2018-04-10T17:43:27.704Z,7.35
2018-04-10T17:45:55.378Z,4.85
2018-04-10T17:48:23.304Z,4.22
2018-04-10T17:50:51.177Z,9.98
2018-04-10T17:53:19.158Z,4.57
2018-04-10T17:55:46.824Z,4.35
2018-04-10T17:58:14.489Z,4.65
2018-04-10T18:00:42.123Z,8.55
2018-04-10T18:03:09.819Z,7.68
2018-04-10T18:05:37.469Z,3.55
2018-04-10T18:08:05.098Z,5.57
2018-04-10T18:10:32.771Z,5.55
2018-04-10T18:13:00.437Z,3.70
2018-04-10T18:15:28.082Z,4.25
2018-04-10T18:17:55.752Z,3.92
2018-04-10T18:20:23.426Z,5.28
2018-04-10T18:22:51.104Z,8.02
2018-04-10T18:25:18.734Z,3.20
2018-04-10T18:27:46.411Z,5.05
2018-04-10T18:30:14.092Z,5.03
2018-04-10T18:32:41.762Z,4.93
2018-04-10T18:35:09.418Z,8.80
2018-04-10T18:37:37.065Z,6.80
2018-04-10T18:40:04.727Z,5.20
2018-04-10T18:42:32.359Z,5.07
2018-04-10T18:45:00.027Z,4.12
2018-04-10T18:47:27.744Z,9.60
2018-04-10T18:49:56.153Z,3.60
2018-04-10T18:52:23.799Z,5.15
2018-04-10T18:54:52.290Z,4.72
2018-04-10T18:57:19.923Z,6.80
2018-04-10T18:59:47.547Z,6.87
2018-04-10T19:02:15.212Z,4.68
2018-04-10T19:04:43.640Z,11.05
2018-04-10T19:07:12.063Z,3.60
2018-04-10T19:09:39.704Z,3.85
2018-04-10T19:12:07.367Z,4.50
2018-04-10T19:14:34.998Z,4.50
2018-04-10T19:17:03.391Z,3.90
2018-04-10T19:19:31.094Z,5.53
2018-04-10T19:21:58.724Z,4.80
2018-04-10T19:24:26.358Z,10.80
2018-04-10T19:26:54.839Z,3.28
2018-04-10T19:29:23.230Z,6.18
2018-04-10T19:31:50.871Z,8.68
2018-04-10T19:34:19.290Z,5.53
2018-04-10T19:36:46.998Z,8.75
2018-04-10T19:39:14.627Z,3.47
2018-04-10T19:41:43.026Z,5.12
2018-04-10T19:44:10.679Z,13.68
2018-04-10T19:46:38.311Z,6.20
2018-04-10T19:49:06.022Z,8.52
2018-04-10T19:51:33.664Z,8.52
2018-04-10T19:54:01.308Z,9.15
2018-04-10T19:56:28.966Z,11.77
2018-04-10T19:58:56.624Z,4.15
2018-04-10T20:01:24.305Z,7.10
2018-04-10T20:03:51.936Z,7.55
2018-04-10T20:06:19.557Z,5.68
2018-04-10T20:08:48.107Z,2.78
2018-04-10T20:11:15.791Z,11.65
2018-04-10T20:13:44.230Z,16.62
2018-04-10T20:16:12.622Z,4.05
2018-04-10T20:18:40.250Z,12.15
2018-04-10T20:21:07.906Z,6.62
2018-04-10T20:23:35.534Z,5.90
2018-04-10T20:26:03.925Z,11.30
2018-04-10T20:28:31.590Z,6.87
2018-04-10T20:30:59.226Z,4.78
2018-04-10T20:33:27.626Z,13.18
2018-04-10T20:35:55.287Z,7.07
2018-04-10T20:38:22.917Z,8.52
2018-04-10T20:40:50.603Z,4.47
2018-04-10T20:43:18.230Z,5.55
2018-04-10T20:45:45.863Z,5.70
2018-04-10T20:48:13.534Z,6.43
2018-04-10T20:50:41.165Z,12.60
2018-04-10T20:53:08.793Z,5.90
2018-04-10T20:55:37.235Z,7.40
2018-04-10T20:58:05.658Z,3.87
2018-04-10T21:00:34.055Z,4.45
2018-04-10T21:03:01.754Z,8.75
2018-04-10T21:05:29.421Z,4.32
2018-04-10T21:07:57.059Z,3.70
2018-04-10T21:10:24.724Z,8.93
2018-04-10T21:12:52.355Z,3.95
2018-04-10T21:15:19.989Z,10.38
2018-04-10T21:17:48.425Z,6.43
2018-04-10T21:20:16.056Z,8.73
2018-04-10T21:22:43.678Z,6.53
2018-04-10T21:25:11.359Z,6.28
2018-04-10T21:27:39.753Z,6.15
2018-04-10T21:30:08.135Z,6.37
2018-04-10T21:32:35.795Z,9.25
2018-04-10T21:35:03.480Z,7.70
2018-04-10T21:37:31.122Z,7.85
2018-04-10T21:39:58.783Z,8.77
2018-04-10T21:42:26.422Z,5.22
2018-04-10T21:44:54.054Z,8.98
2018-04-10T21:47:21.711Z,9.98
2018-04-10T21:49:49.339Z,8.20
2018-04-10T21:52:17.006Z,5.18
2018-04-10T21:54:44.642Z,8.93
2018-04-10T21:57:12.278Z,11.27
2018-04-10T21:59:40.695Z,7.87
2018-04-10T22:02:08.326Z,5.45
2018-04-10T22:04:35.960Z,11.85
2018-04-10T22:07:04.410Z,11.00
2018-04-10T22:09:32.039Z,8.75
2018-04-10T22:11:59.718Z,12.93
2018-04-10T22:14:27.389Z,9.73
2018-04-10T22:16:55.014Z,9.75
2018-04-10T22:19:22.642Z,7.53
2018-04-10T22:21:51.077Z,11.95
2018-04-10T22:24:18.707Z,9.65
2018-04-10T22:26:46.338Z,6.22
2018-04-10T22:29:14.754Z,6.87
